createdAt,value
2018-11-02T00:01:36.990Z,0.50
2018-11-02T00:06:41.152Z,0.57
2018-11-02T00:11:45.342Z,0.63
2018-11-02T00:16:49.573Z,0.70
2018-11-02T00:21:53.888Z,0.50
2018-11-02T00:26:59.316Z,0.60
2018-11-02T00:32:03.569Z,0.70
2018-11-02T00:37:08.068Z,0.57
2018-11-02T00:42:12.265Z,0.60
2018-11-02T00:47:16.495Z,0.60
2018-11-02T00:52:20.911Z,0.70
2018-11-02T00:57:25.260Z,0.80
2018-11-02T01:02:29.441Z,0.70
2018-11-02T01:07:33.595Z,1.07
2018-11-02T01:12:38.702Z,0.77
2018-11-02T01:17:42.943Z,1.23
2018-11-02T01:22:47.089Z,1.00
2018-11-02T01:27:51.301Z,1.00
2018-11-02T01:32:55.610Z,1.17
2018-11-02T01:38:00.154Z,1.60
2018-11-02T01:43:04.484Z,1.37
2018-11-02T01:48:08.661Z,1.20
2018-11-02T01:53:12.814Z,1.70
2018-11-02T01:58:17.013Z,1.77
2018-11-02T02:03:21.245Z,1.63
2018-11-02T02:08:25.470Z,2.17
2018-11-02T02:13:29.719Z,1.57
2018-11-02T02:18:34.085Z,1.73
2018-11-02T02:23:38.390Z,2.10
2018-11-02T02:28:42.584Z,2.13
2018-11-02T02:33:46.737Z,2.60
2018-11-02T02:38:51.221Z,2.47
2018-11-02T02:43:55.440Z,2.67
2018-11-02T02:48:59.760Z,2.60
2018-11-02T02:54:04.182Z,1.80
2018-11-02T02:59:08.515Z,2.23
2018-11-02T03:04:12.672Z,2.80
2018-11-02T03:09:16.870Z,2.70
2018-11-02T03:14:21.134Z,2.63
2018-11-02T03:19:25.324Z,2.90
2018-11-02T03:24:29.475Z,3.23
2018-11-02T03:29:33.757Z,3.00
2018-11-02T03:34:38.024Z,3.50
2018-11-02T03:39:42.174Z,3.40
2018-11-02T03:44:46.356Z,3.73
2018-11-02T03:49:50.503Z,5.13
2018-11-02T03:54:54.896Z,4.53
2018-11-02T03:59:59.142Z,4.20
2018-11-02T04:05:03.373Z,4.33
2018-11-02T04:10:09.144Z,3.90
2018-11-02T04:15:13.362Z,4.67
2018-11-02T04:20:17.660Z,3.83
2018-11-02T04:25:21.810Z,4.13
2018-11-02T04:30:26.066Z,4.40
2018-11-02T04:35:30.292Z,4.10
2018-11-02T04:40:34.460Z,4.77
2018-11-02T04:45:40.310Z,4.50
2018-11-02T04:50:44.614Z,4.47
2018-11-02T04:55:48.705Z,3.87
2018-11-02T05:00:52.902Z,4.63
2018-11-02T05:05:57.079Z,4.10
2018-11-02T05:11:01.256Z,4.50
2018-11-02T05:16:05.957Z,4.93
2018-11-02T05:21:10.235Z,5.20
2018-11-02T05:26:14.287Z,4.33
2018-11-02T05:31:18.737Z,5.20
2018-11-02T05:36:22.937Z,4.53
2018-11-02T05:41:27.181Z,4.30
2018-11-02T05:46:31.365Z,4.03
2018-11-02T05:51:35.507Z,4.00
2018-11-02T05:56:39.772Z,4.50
2018-11-02T06:01:44.202Z,3.90
2018-11-02T06:06:48.307Z,4.30
2018-11-02T06:11:52.483Z,3.43
2018-11-02T06:16:56.844Z,3.90
2018-11-02T06:22:00.888Z,4.20
2018-11-02T06:27:05.112Z,3.80
2018-11-02T06:32:09.644Z,3.77
2018-11-02T06:37:13.939Z,4.00
2018-11-02T06:42:18.210Z,3.33
2018-11-02T06:47:22.419Z,3.43
2018-11-02T06:52:26.723Z,3.30
2018-11-02T06:57:30.889Z,3.37
2018-11-02T07:02:35.155Z,2.90
2018-11-02T07:07:39.518Z,3.50
2018-11-02T07:12:43.635Z,3.80
2018-11-02T07:17:48.292Z,3.30
2018-11-02T07:22:52.412Z,3.83
2018-11-02T07:27:56.570Z,4.30
2018-11-02T07:33:00.956Z,4.03
2018-11-02T07:38:05.219Z,4.03
2018-11-02T07:43:09.334Z,4.43
2018-11-02T07:48:13.521Z,4.20
2018-11-02T07:53:17.753Z,3.87
2018-11-02T07:58:22.240Z,3.60
2018-11-02T08:03:26.436Z,3.77
2018-11-02T08:08:30.687Z,4.17
2018-11-02T08:13:34.919Z,4.00
2018-11-02T08:18:39.075Z,4.13
2018-11-02T08:23:43.259Z,5.07
2018-11-02T08:28:47.489Z,5.70
2018-11-02T08:33:51.777Z,5.43
2018-11-02T08:38:55.971Z,5.60
2018-11-02T08:44:00.200Z,5.10
2018-11-02T08:49:04.631Z,5.17
2018-11-02T08:54:15.794Z,5.07
2018-11-02T08:59:20.193Z,5.23
2018-11-02T09:04:24.572Z,5.67
2018-11-02T09:09:28.897Z,4.70
2018-11-02T09:14:33.175Z,5.00
2018-11-02T09:19:37.414Z,4.87
2018-11-02T09:24:41.618Z,4.47
2018-11-02T09:29:45.810Z,4.23
2018-11-02T09:34:50.151Z,4.97
2018-11-02T09:39:54.674Z,4.80
2018-11-02T09:44:58.901Z,4.10
2018-11-02T09:50:03.179Z,3.67
2018-11-02T09:55:09.331Z,4.10
2018-11-02T10:00:14.106Z,3.50
2018-11-02T10:05:18.324Z,3.37
2018-11-02T10:10:22.671Z,3.73
2018-11-02T10:15:27.510Z,3.73
2018-11-02T10:20:31.772Z,2.67
2018-11-02T10:25:35.976Z,3.07
2018-11-02T10:30:40.254Z,3.27
2018-11-02T10:35:44.535Z,2.40
2018-11-02T10:40:54.272Z,3.20
2018-11-02T10:46:00.841Z,2.80
2018-11-02T10:51:05.430Z,2.57
2018-11-02T10:56:09.540Z,2.40
2018-11-02T11:01:19.066Z,2.70
2018-11-02T11:06:23.282Z,2.20
2018-11-02T11:11:27.641Z,1.97
2018-11-02T11:16:31.975Z,2.03
2018-11-02T11:21:36.571Z,1.63
2018-11-02T11:26:40.779Z,2.40
2018-11-02T11:31:45.064Z,1.90
2018-11-02T11:36:49.326Z,1.90
2018-11-02T11:41:53.531Z,1.80
2018-11-02T11:46:57.710Z,1.97
2018-11-02T11:52:01.990Z,1.83
2018-11-02T11:57:06.707Z,1.80
2018-11-02T12:02:10.946Z,1.60
2018-11-02T12:07:15.225Z,1.70
2018-11-02T12:12:19.419Z,1.60
2018-11-02T12:17:23.651Z,1.90
2018-11-02T12:22:34.361Z,1.47
2018-11-02T12:27:38.946Z,1.57
2018-11-02T12:32:43.117Z,1.23
2018-11-02T12:37:47.536Z,0.90
2018-11-02T12:42:52.761Z,0.73
2018-11-02T12:47:57.288Z,0.90
2018-11-02T12:53:01.399Z,2.43
2018-11-02T12:58:05.645Z,1.10
2018-11-02T13:03:09.817Z,1.00
2018-11-02T13:08:13.991Z,1.03
2018-11-02T13:13:18.191Z,1.00
2018-11-02T13:18:22.428Z,0.87
2018-11-02T13:23:26.670Z,1.10
2018-11-02T13:28:30.830Z,1.10
2018-11-02T13:33:34.998Z,0.90
2018-11-02T13:38:39.277Z,1.00
2018-11-02T13:43:43.696Z,0.50
2018-11-02T13:48:47.727Z,1.00
2018-11-02T13:53:52.008Z,0.90
2018-11-02T13:58:56.333Z,0.83
2018-11-02T14:04:00.503Z,1.00
2018-11-02T14:09:06.643Z,1.43
2018-11-02T14:14:10.830Z,1.40
2018-11-02T14:19:15.427Z,1.60
2018-11-02T14:24:19.638Z,1.30
2018-11-02T14:29:24.081Z,1.30
2018-11-02T14:34:28.315Z,0.90
2018-11-02T14:39:32.652Z,1.23
2018-11-02T14:44:36.834Z,1.67
2018-11-02T14:49:41.810Z,1.70
2018-11-02T14:54:45.996Z,1.43
2018-11-02T14:59:50.188Z,1.30
2018-11-02T15:04:54.396Z,1.57
2018-11-02T15:09:58.562Z,1.53
2018-11-02T15:15:02.741Z,1.37
2018-11-02T15:20:10.274Z,1.27
2018-11-02T15:25:14.485Z,1.57
2018-11-02T15:30:18.673Z,1.37
2018-11-02T15:35:22.939Z,1.00
2018-11-02T15:40:27.197Z,0.90
2018-11-02T15:45:31.584Z,1.00
2018-11-02T15:50:35.790Z,0.90
2018-11-02T15:55:40.039Z,1.27
2018-11-02T16:00:44.513Z,0.97
2018-11-02T16:05:48.878Z,1.00
2018-11-02T16:10:53.446Z,1.97
2018-11-02T16:15:57.613Z,1.80
2018-11-02T16:21:01.787Z,1.90
2018-11-02T16:26:05.987Z,1.53
2018-11-02T16:31:10.321Z,1.63
2018-11-02T16:36:14.493Z,2.00
2018-11-02T16:41:18.895Z,1.87
2018-11-02T16:46:23.061Z,1.50
2018-11-02T16:51:27.214Z,1.77
2018-11-02T16:56:31.711Z,1.60
2018-11-02T17:01:35.973Z,1.80
2018-11-02T17:06:40.224Z,2.30
2018-11-02T17:11:44.473Z,2.53
2018-11-02T17:16:48.678Z,2.47
2018-11-02T17:21:52.942Z,2.00
2018-11-02T17:26:57.151Z,1.83
2018-11-02T17:32:01.382Z,1.77
2018-11-02T17:37:05.986Z,1.87
2018-11-02T17:42:10.170Z,2.10
2018-11-02T17:47:14.345Z,2.10
2018-11-02T17:52:18.532Z,2.30
2018-11-02T17:57:22.689Z,2.50
2018-11-02T18:02:27.069Z,2.97
2018-11-02T18:07:31.265Z,3.00
2018-11-02T18:12:35.433Z,2.93
2018-11-02T18:17:39.588Z,2.87
2018-11-02T18:22:43.910Z,4.37
2018-11-02T18:27:48.110Z,4.70
2018-11-02T18:32:52.280Z,4.13
2018-11-02T18:37:56.546Z,4.20
2018-11-02T18:43:00.762Z,3.83
2018-11-02T18:48:05.066Z,3.60
2018-11-02T18:53:09.229Z,4.10
2018-11-02T18:58:13.423Z,3.77
2018-11-02T19:03:17.754Z,3.87
2018-11-02T19:08:22.192Z,4.07
2018-11-02T19:13:27.007Z,3.90
2018-11-02T19:18:31.140Z,3.87
2018-11-02T19:23:35.356Z,3.40
2018-11-02T19:28:39.593Z,3.60
2018-11-02T19:33:43.767Z,4.10
2018-11-02T19:38:48.047Z,3.73
2018-11-02T19:43:53.105Z,3.90
2018-11-02T19:48:57.439Z,3.33
2018-11-02T19:54:01.676Z,3.67
2018-11-02T19:59:06.018Z,3.67
2018-11-02T20:04:10.193Z,3.60
2018-11-02T20:09:14.941Z,4.33
2018-11-02T20:14:21.882Z,3.80
2018-11-02T20:19:26.123Z,3.90
2018-11-02T20:24:30.709Z,3.37
2018-11-02T20:29:34.894Z,3.73
2018-11-02T20:34:39.123Z,3.23
2018-11-02T20:39:44.074Z,4.43
2018-11-02T20:44:48.240Z,4.13
2018-11-02T20:49:52.539Z,5.50
2018-11-02T20:54:57.024Z,5.63
2018-11-02T21:00:01.234Z,5.53
2018-11-02T21:05:06.891Z,5.30
2018-11-02T21:10:12.504Z,5.10
2018-11-02T21:15:18.877Z,4.97
2018-11-02T21:20:24.410Z,4.20
2018-11-02T21:25:29.150Z,3.63
2018-11-02T21:30:33.449Z,3.97
2018-11-02T21:35:37.617Z,3.93
2018-11-02T21:40:42.287Z,4.00
2018-11-02T21:45:47.114Z,4.53
2018-11-02T21:50:51.300Z,4.13
2018-11-02T21:55:55.633Z,4.77
2018-11-02T22:00:59.858Z,3.93
2018-11-02T22:06:04.107Z,3.77
2018-11-02T22:11:08.257Z,3.50
2018-11-02T22:16:12.489Z,3.50
2018-11-02T22:21:16.672Z,3.47
2018-11-02T22:26:20.898Z,3.70
2018-11-02T22:31:25.167Z,4.40
2018-11-02T22:36:29.348Z,3.73
2018-11-02T22:41:33.582Z,3.60
2018-11-02T22:46:37.927Z,3.67
2018-11-02T22:51:42.161Z,3.40
2018-11-02T22:56:46.306Z,3.60
2018-11-02T23:01:50.732Z,3.37
2018-11-02T23:06:54.984Z,3.30
2018-11-02T23:11:59.317Z,3.67
2018-11-02T23:17:03.555Z,3.90
2018-11-02T23:22:07.872Z,3.47
2018-11-02T23:27:12.018Z,3.40
2018-11-02T23:32:16.307Z,3.13
2018-11-02T23:37:20.551Z,3.13
2018-11-02T23:42:24.734Z,2.70
2018-11-02T23:47:29.139Z,3.13
2018-11-02T23:52:33.553Z,3.03
2018-11-02T23:57:37.943Z,2.90
